Time;durP1;ratioP1;P1;durP2;ratioP2;P2;SDS_P1;SDS_P2;PMS_P1;PMS_P2;Temp;Humidity;BMP_temperature;BMP_pressure;BME280_temperature;BME280_humidity;BME280_pressure;Samples;Min_cycle;Max_cycle;Signal;HPM_P1;HPM_P2
2022/04/23 00:00:16;;;;;;;16.73;10.55;;;;;;;;;;4713679;30;20052;-81
2022/04/23 00:02:44;;;;;;;14.40;11.32;;;;;;;;;;4698565;30;20064;-81
2022/04/23 00:05:12;;;;;;;14.07;10.13;;;;;;;;;;4698962;30;20067;-81
2022/04/23 00:07:40;;;;;;;17.58;10.70;;;;;;;;;;4711931;30;20059;-82
2022/04/23 00:10:08;;;;;;;11.00;9.15;;;;;;;;;;4713688;30;20048;-82
2022/04/23 00:12:37;;;;;;;14.63;11.68;;;;;;;;;;4713981;30;20070;-80
2022/04/23 00:15:06;;;;;;;13.82;10.93;;;;;;;;;;4712258;30;20056;-80
2022/04/23 00:17:34;;;;;;;16.10;12.35;;;;;;;;;;4712312;30;20049;-81
2022/04/23 00:20:02;;;;;;;17.00;11.98;;;;;;;;;;4713210;30;20056;-81
2022/04/23 00:22:30;;;;;;;18.25;13.38;;;;;;;;;;4728380;30;20051;-80
2022/04/23 00:25:00;;;;;;;16.00;11.40;;;;;;;;;;4713627;30;20441;-80
2022/04/23 00:27:33;;;;;;;14.65;10.13;;;;;;;;;;4727940;30;20059;-81
2022/04/23 00:30:01;;;;;;;16.25;12.18;;;;;;;;;;4712302;30;20052;-79
2022/04/23 00:32:30;;;;;;;12.38;8.52;;;;;;;;;;4715540;30;20076;-80
2022/04/23 00:34:58;;;;;;;14.57;10.40;;;;;;;;;;4722182;30;20083;-80
2022/04/23 00:37:26;;;;;;;13.50;9.30;;;;;;;;;;4727760;30;20060;-81
2022/04/23 00:39:54;;;;;;;16.13;12.90;;;;;;;;;;4728648;30;20063;-81
2022/04/23 00:42:22;;;;;;;13.98;10.52;;;;;;;;;;4712448;30;20056;-82
2022/04/23 00:44:50;;;;;;;15.98;12.48;;;;;;;;;;4728921;30;20558;-80
2022/04/23 00:47:21;;;;;;;16.25;9.82;;;;;;;;;;4727713;30;20053;-81
2022/04/23 00:49:50;;;;;;;14.68;11.30;;;;;;;;;;4697559;30;20060;-81
2022/04/23 00:52:19;;;;;;;15.25;8.75;;;;;;;;;;4712272;30;20411;-81
2022/04/23 00:54:47;;;;;;;16.98;12.52;;;;;;;;;;4727150;30;20064;-81
2022/04/23 00:57:17;;;;;;;14.98;9.40;;;;;;;;;;4727879;30;20065;-81
2022/04/23 00:59:49;;;;;;;11.43;10.25;;;;;;;;;;4711868;30;20717;-81
2022/04/23 01:02:17;;;;;;;13.98;11.55;;;;;;;;;;4712103;30;20052;-81
2022/04/23 01:04:46;;;;;;;12.90;9.82;;;;;;;;;;4713082;30;20057;-80
2022/04/23 01:07:15;;;;;;;12.02;9.82;;;;;;;;;;4711487;30;20063;-81
2022/04/23 01:09:44;;;;;;;15.82;11.77;;;;;;;;;;4727568;30;20053;-81
2022/04/23 01:12:12;;;;;;;17.10;11.75;;;;;;;;;;4728783;30;20056;-80
2022/04/23 01:14:58;;;;;;;24.95;14.02;;;;;;;;;;4711898;30;20065;-80
2022/04/23 01:17:27;;;;;;;14.10;12.10;;;;;;;;;;4726745;30;20498;-81
2022/04/23 01:19:54;;;;;;;12.63;10.25;;;;;;;;;;4712461;30;20060;-80
2022/04/23 01:22:24;;;;;;;14.60;9.65;;;;;;;;;;4697360;30;20049;-81
2022/04/23 01:24:52;;;;;;;16.52;10.57;;;;;;;;;;4728719;30;20087;-81
2022/04/23 01:27:22;;;;;;;17.40;11.57;;;;;;;;;;4731048;30;20048;-80
2022/04/23 01:29:50;;;;;;;12.77;11.25;;;;;;;;;;4731138;30;20166;-80
2022/04/23 01:32:18;;;;;;;18.98;10.95;;;;;;;;;;4701592;30;20064;-81
2022/04/23 01:34:46;;;;;;;12.82;9.70;;;;;;;;;;4715407;30;20060;-81
2022/04/23 01:37:14;;;;;;;12.60;11.05;;;;;;;;;;4714948;30;20289;-82
2022/04/23 01:39:42;;;;;;;11.73;8.50;;;;;;;;;;4730828;30;20065;-81
2022/04/23 01:42:10;;;;;;;14.98;10.55;;;;;;;;;;4715579;30;20056;-81
2022/04/23 01:44:38;;;;;;;15.30;12.20;;;;;;;;;;4716438;30;20063;-81
2022/04/23 01:47:06;;;;;;;16.52;11.98;;;;;;;;;;4730700;30;20060;-81
2022/04/23 01:49:34;;;;;;;13.10;10.93;;;;;;;;;;4731116;30;20045;-81
2022/04/23 01:52:02;;;;;;;15.15;10.88;;;;;;;;;;4709845;30;20488;-81
2022/04/23 01:54:32;;;;;;;8.55;7.75;;;;;;;;;;4695719;30;20056;-81
2022/04/23 01:57:00;;;;;;;17.05;12.75;;;;;;;;;;4712830;30;20048;-81
2022/04/23 01:59:29;;;;;;;18.75;12.50;;;;;;;;;;4697518;30;20064;-80
2022/04/23 02:01:57;;;;;;;19.63;13.85;;;;;;;;;;4712114;30;20053;-81
2022/04/23 02:04:26;;;;;;;18.85;13.27;;;;;;;;;;4698298;30;20072;-80
2022/04/23 02:06:54;;;;;;;13.38;9.85;;;;;;;;;;4709836;30;20052;-81
2022/04/23 02:09:23;;;;;;;21.90;13.18;;;;;;;;;;4722501;30;20053;-82
2022/04/23 02:11:51;;;;;;;15.77;13.05;;;;;;;;;;4725785;30;20056;-80
2022/04/23 02:14:20;;;;;;;17.27;10.88;;;;;;;;;;4723553;30;20048;-81
2022/04/23 02:16:47;;;;;;;14.10;11.50;;;;;;;;;;4714742;30;20064;-81
2022/04/23 02:19:16;;;;;;;15.23;11.35;;;;;;;;;;4714660;30;20056;-81
2022/04/23 02:21:45;;;;;;;15.43;10.07;;;;;;;;;;4700135;30;20254;-82
2022/04/23 02:24:13;;;;;;;15.65;12.25;;;;;;;;;;4731068;30;20067;-82
2022/04/23 02:26:41;;;;;;;13.52;10.13;;;;;;;;;;4714259;30;20049;-83
2022/04/23 02:29:09;;;;;;;16.80;10.52;;;;;;;;;;4714762;30;20079;-82
2022/04/23 02:31:38;;;;;;;15.27;9.80;;;;;;;;;;4723469;30;20057;-82
2022/04/23 02:34:07;;;;;;;8.93;8.02;;;;;;;;;;4719407;30;20053;-81
2022/04/23 02:36:35;;;;;;;11.63;10.45;;;;;;;;;;4730092;30;20061;-81
2022/04/23 02:39:03;;;;;;;17.48;11.77;;;;;;;;;;4713187;30;20068;-81
2022/04/23 02:41:31;;;;;;;11.13;8.68;;;;;;;;;;4730231;30;20487;-81
2022/04/23 02:43:59;;;;;;;20.05;12.50;;;;;;;;;;4715481;30;20703;-82
2022/04/23 02:46:27;;;;;;;15.13;11.85;;;;;;;;;;4714137;30;20061;-81
2022/04/23 02:48:56;;;;;;;17.42;13.60;;;;;;;;;;4714562;30;20052;-82
2022/04/23 02:51:24;;;;;;;18.48;12.27;;;;;;;;;;4713953;30;20056;-81
2022/04/23 02:53:52;;;;;;;15.20;11.68;;;;;;;;;;4714034;30;20052;-82
2022/04/23 02:56:20;;;;;;;18.95;10.88;;;;;;;;;;4730757;30;20057;-81
2022/04/23 02:58:48;;;;;;;15.45;11.50;;;;;;;;;;4714298;30;20052;-81
2022/04/23 03:01:16;;;;;;;14.65;11.43;;;;;;;;;;4699680;30;20063;-81
2022/04/23 03:03:44;;;;;;;15.68;10.25;;;;;;;;;;4730494;30;20069;-81
2022/04/23 03:06:14;;;;;;;11.63;9.27;;;;;;;;;;4729578;30;20052;-81
2022/04/23 03:08:42;;;;;;;15.63;10.95;;;;;;;;;;4714378;30;20141;-81
2022/04/23 03:11:10;;;;;;;14.23;7.47;;;;;;;;;;4714373;30;20057;-81
2022/04/23 03:13:38;;;;;;;20.52;14.15;;;;;;;;;;4699328;30;20060;-81
2022/04/23 03:16:07;;;;;;;11.57;8.52;;;;;;;;;;4725675;30;20418;-82
2022/04/23 03:18:36;;;;;;;16.85;12.63;;;;;;;;;;4729243;30;20053;-82
2022/04/23 03:21:04;;;;;;;10.98;8.15;;;;;;;;;;4714084;30;20061;-81
2022/04/23 03:23:32;;;;;;;16.35;10.68;;;;;;;;;;4729309;30;20420;-82
2022/04/23 03:26:00;;;;;;;19.70;11.60;;;;;;;;;;4713762;30;20045;-82
2022/04/23 03:28:28;;;;;;;15.73;10.75;;;;;;;;;;4713818;30;20479;-83
2022/04/23 03:30:56;;;;;;;14.35;9.15;;;;;;;;;;4729667;30;20426;-80
2022/04/23 03:33:24;;;;;;;12.48;8.25;;;;;;;;;;4713269;30;20527;-80
2022/04/23 03:35:53;;;;;;;13.23;8.63;;;;;;;;;;4699511;30;20048;-82
2022/04/23 03:38:21;;;;;;;12.50;7.60;;;;;;;;;;4712809;30;20522;-83
2022/04/23 03:40:53;;;;;;;14.90;9.85;;;;;;;;;;4730180;30;20053;-82
2022/04/23 03:43:22;;;;;;;14.13;8.95;;;;;;;;;;4713610;30;20053;-82
2022/04/23 03:45:50;;;;;;;14.02;8.52;;;;;;;;;;4713357;30;20059;-81
2022/04/23 03:48:18;;;;;;;17.58;10.25;;;;;;;;;;4713052;30;20074;-82
2022/04/23 03:50:48;;;;;;;12.90;9.55;;;;;;;;;;4698822;30;20056;-82
2022/04/23 03:53:16;;;;;;;11.05;9.75;;;;;;;;;;4728698;30;20658;-82
2022/04/23 03:55:45;;;;;;;12.55;8.88;;;;;;;;;;4728312;30;20060;-83
2022/04/23 03:58:13;;;;;;;14.68;8.68;;;;;;;;;;4712644;30;20049;-82
2022/04/23 04:00:41;;;;;;;15.57;10.88;;;;;;;;;;4698937;30;20057;-82
2022/04/23 04:03:09;;;;;;;19.85;12.35;;;;;;;;;;4698470;30;20447;-82
2022/04/23 04:05:37;;;;;;;12.90;7.85;;;;;;;;;;4728961;30;20048;-82
2022/04/23 04:08:05;;;;;;;11.45;9.23;;;;;;;;;;4712518;30;20052;-82
2022/04/23 04:10:33;;;;;;;12.00;9.68;;;;;;;;;;4713517;30;20403;-82
2022/04/23 04:13:02;;;;;;;14.57;9.32;;;;;;;;;;4729151;30;20052;-81
2022/04/23 04:15:31;;;;;;;11.85;6.13;;;;;;;;;;4728817;30;20428;-81
2022/04/23 04:17:59;;;;;;;15.70;9.80;;;;;;;;;;4712516;30;20059;-82
2022/04/23 04:20:32;;;;;;;13.57;10.55;;;;;;;;;;4729310;30;20057;-82
2022/04/23 04:23:01;;;;;;;11.70;9.68;;;;;;;;;;4697695;30;20052;-81
2022/04/23 04:25:29;;;;;;;10.57;7.70;;;;;;;;;;4712332;30;20063;-82
2022/04/23 04:27:59;;;;;;;14.35;8.23;;;;;;;;;;4712645;30;20061;-82
2022/04/23 04:30:27;;;;;;;14.48;8.27;;;;;;;;;;4712257;30;20052;-81
2022/04/23 04:32:55;;;;;;;14.07;9.45;;;;;;;;;;4712853;30;20057;-81
2022/04/23 04:35:23;;;;;;;13.40;7.80;;;;;;;;;;4727088;30;20056;-82
2022/04/23 04:37:53;;;;;;;13.82;8.95;;;;;;;;;;4711578;30;20056;-81
2022/04/23 04:40:23;;;;;;;;;;;;;;;;;;4713757;30;20049;-82
2022/04/23 04:42:51;;;;;;;12.80;9.07;;;;;;;;;;4712675;30;19931;-82
2022/04/23 04:45:19;;;;;;;14.88;10.18;;;;;;;;;;4712339;30;20095;-82
2022/04/23 04:47:47;;;;;;;11.00;8.57;;;;;;;;;;4728439;30;20061;-81
2022/04/23 04:50:15;;;;;;;10.93;7.25;;;;;;;;;;4712442;30;20052;-81
2022/04/23 04:52:43;;;;;;;11.68;9.38;;;;;;;;;;4741437;30;20052;-83
2022/04/23 04:55:11;;;;;;;19.88;11.10;;;;;;;;;;4712314;30;20059;-82
2022/04/23 04:57:41;;;;;;;19.00;12.05;;;;;;;;;;4727875;30;20048;-82
2022/04/23 05:00:10;;;;;;;17.60;10.75;;;;;;;;;;4726886;30;20718;-82
2022/04/23 05:02:39;;;;;;;17.30;10.45;;;;;;;;;;4727929;30;20056;-82
2022/04/23 05:05:07;;;;;;;14.88;9.75;;;;;;;;;;4728594;30;20061;-83
2022/04/23 05:07:35;;;;;;;13.73;9.52;;;;;;;;;;4711406;30;20052;-82
2022/04/23 05:10:04;;;;;;;12.27;9.75;;;;;;;;;;4697721;30;20389;-83
2022/04/23 05:12:32;;;;;;;16.40;8.82;;;;;;;;;;4715553;30;20056;-82
2022/04/23 05:15:00;;;;;;;14.30;10.80;;;;;;;;;;4712121;30;20523;-82
2022/04/23 05:17:28;;;;;;;18.02;10.00;;;;;;;;;;4711937;30;20064;-82
2022/04/23 05:19:57;;;;;;;14.85;10.32;;;;;;;;;;4727106;30;20061;-82
2022/04/23 05:22:25;;;;;;;18.73;13.32;;;;;;;;;;4726354;30;20079;-82
2022/04/23 05:24:54;;;;;;;14.23;10.20;;;;;;;;;;4712478;30;20063;-82
2022/04/23 05:27:25;;;;;;;14.55;9.32;;;;;;;;;;4711906;30;20504;-82
2022/04/23 05:29:52;;;;;;;9.50;7.67;;;;;;;;;;4711849;30;20530;-82
2022/04/23 05:32:20;;;;;;;14.60;12.05;;;;;;;;;;4728106;30;20056;-82
2022/04/23 05:34:53;;;;;;;20.35;10.18;;;;;;;;;;4726549;30;20064;-82
2022/04/23 05:37:21;;;;;;;16.40;12.23;;;;;;;;;;4696841;30;20060;-83
2022/04/23 05:39:49;;;;;;;15.95;11.80;;;;;;;;;;4726806;30;20060;-82
2022/04/23 05:42:17;;;;;;;20.98;11.90;;;;;;;;;;4727788;30;20048;-83
2022/04/23 05:44:45;;;;;;;20.25;11.48;;;;;;;;;;4728078;30;20071;-82
2022/04/23 05:47:13;;;;;;;19.40;13.48;;;;;;;;;;4727593;30;20072;-82
2022/04/23 05:50:06;;;;;;;15.98;11.65;;;;;;;;;;4727725;30;20056;-82
2022/04/23 05:53:31;;;;;;;20.45;12.82;;;;;;;;;;4723531;30;20060;-82
2022/04/23 05:56:51;;;;;;;16.38;11.13;;;;;;;;;;4681521;30;20072;-82
2022/04/23 05:59:20;;;;;;;20.75;12.25;;;;;;;;;;4709550;30;20068;-82
2022/04/23 06:01:48;;;;;;;24.17;14.85;;;;;;;;;;4725543;30;20795;-82
2022/04/23 06:04:17;;;;;;;15.60;11.63;;;;;;;;;;4712804;30;20060;-82
2022/04/23 06:06:45;;;;;;;21.20;12.35;;;;;;;;;;4711474;30;20503;-82
2022/04/23 06:09:13;;;;;;;17.20;9.95;;;;;;;;;;4728181;30;20053;-82
2022/04/23 06:11:41;;;;;;;21.70;10.85;;;;;;;;;;4697591;30;20495;-82
2022/04/23 06:14:09;;;;;;;19.63;11.50;;;;;;;;;;4700417;30;20713;-82
2022/04/23 06:16:37;;;;;;;26.08;12.88;;;;;;;;;;4715358;30;20067;-82
2022/04/23 06:19:05;;;;;;;18.50;11.50;;;;;;;;;;4685860;30;20060;-83
2022/04/23 06:21:33;;;;;;;20.77;12.45;;;;;;;;;;4700015;30;20056;-82
2022/04/23 06:24:01;;;;;;;13.70;9.13;;;;;;;;;;4731166;30;20063;-81
2022/04/23 06:26:29;;;;;;;21.95;13.02;;;;;;;;;;4714502;30;20055;-82
2022/04/23 06:28:58;;;;;;;17.88;11.93;;;;;;;;;;4730570;30;20052;-82
2022/04/23 06:31:26;;;;;;;19.73;10.77;;;;;;;;;;4714838;30;20052;-82
2022/04/23 06:33:54;;;;;;;21.50;11.32;;;;;;;;;;4730447;30;20415;-81
2022/04/23 06:36:22;;;;;;;22.05;14.55;;;;;;;;;;4730100;30;20063;-82
2022/04/23 06:38:51;;;;;;;23.75;12.45;;;;;;;;;;4729784;30;20076;-82
2022/04/23 06:41:21;;;;;;;18.75;10.30;;;;;;;;;;4714674;30;20182;-82
2022/04/23 06:43:51;;;;;;;19.50;12.35;;;;;;;;;;4714540;30;20071;-82
2022/04/23 06:46:19;;;;;;;25.30;13.32;;;;;;;;;;4714608;30;20059;-82
2022/04/23 06:48:48;;;;;;;16.25;11.32;;;;;;;;;;4714533;30;20053;-81
2022/04/23 06:51:16;;;;;;;19.05;11.63;;;;;;;;;;4713328;30;20063;-82
2022/04/23 06:53:44;;;;;;;17.45;12.55;;;;;;;;;;4730307;30;20052;-82
2022/04/23 06:56:12;;;;;;;16.80;11.20;;;;;;;;;;4714785;30;20057;-82
2022/04/23 06:58:40;;;;;;;22.92;11.77;;;;;;;;;;4714351;30;20057;-82
2022/04/23 07:01:08;;;;;;;17.90;10.43;;;;;;;;;;4714723;30;20061;-83
2022/04/23 07:03:36;;;;;;;12.35;9.43;;;;;;;;;;4712989;30;20059;-82
2022/04/23 07:06:04;;;;;;;17.25;10.63;;;;;;;;;;4719469;30;20049;-83
2022/04/23 07:08:32;;;;;;;16.33;9.85;;;;;;;;;;4708759;30;20076;-83
2022/04/23 07:11:00;;;;;;;12.38;10.95;;;;;;;;;;4714449;30;20499;-83
2022/04/23 07:13:30;;;;;;;17.70;11.82;;;;;;;;;;4728004;30;20052;-83
2022/04/23 07:16:05;;;;;;;16.42;10.52;;;;;;;;;;4722403;30;20059;-82
2022/04/23 07:18:35;;;;;;;13.75;10.00;;;;;;;;;;4725354;30;20064;-85
2022/04/23 07:21:03;;;;;;;14.88;11.55;;;;;;;;;;4729271;30;20787;-83
2022/04/23 07:26:31;;;;;;;13.77;11.13;;;;;;;;;;4729604;30;20044;-84
2022/04/23 07:29:55;;;;;;;17.58;13.05;;;;;;;;;;4729602;30;20052;-84
2022/04/23 07:37:28;;;;;;;22.15;10.63;;;;;;;;;;4715013;30;20056;-84
2022/04/23 07:39:47;;;;;;;17.42;12.07;;;;;;;;;;4722687;30;20053;-82
2022/04/23 07:42:16;;;;;;;15.20;10.15;;;;;;;;;;4729591;30;20078;-84
2022/04/23 07:44:46;;;;;;;14.10;9.95;;;;;;;;;;4713514;30;20067;-84
2022/04/23 07:47:19;;;;;;;15.35;9.48;;;;;;;;;;4699322;30;20065;-84
2022/04/23 07:49:49;;;;;;;14.27;11.93;;;;;;;;;;4713561;30;20799;-84
2022/04/23 07:52:19;;;;;;;19.70;15.68;;;;;;;;;;4713555;30;20064;-84
2022/04/23 07:54:49;;;;;;;12.95;9.55;;;;;;;;;;4714842;30;20526;-84
2022/04/23 07:57:21;;;;;;;14.13;9.68;;;;;;;;;;4673128;30;20060;-85
2022/04/23 07:59:49;;;;;;;12.82;9.57;;;;;;;;;;4698913;30;20605;-84
2022/04/23 08:02:18;;;;;;;14.20;10.52;;;;;;;;;;4728802;30;20048;-84
2022/04/23 08:04:47;;;;;;;15.45;9.23;;;;;;;;;;4699444;30;20064;-85
2022/04/23 08:07:15;;;;;;;13.45;9.50;;;;;;;;;;4712557;30;20049;-84
2022/04/23 08:09:43;;;;;;;13.52;10.13;;;;;;;;;;4712693;30;20107;-86
2022/04/23 08:12:11;;;;;;;15.18;9.68;;;;;;;;;;4729301;30;20541;-85
2022/04/23 08:14:39;;;;;;;11.50;9.88;;;;;;;;;;4718293;30;20779;-84
2022/04/23 08:17:08;;;;;;;11.00;8.73;;;;;;;;;;4711914;30;20060;-85
2022/04/23 08:19:37;;;;;;;13.45;10.38;;;;;;;;;;4709802;30;20057;-84
2022/04/23 08:22:06;;;;;;;12.82;11.50;;;;;;;;;;4711006;30;20049;-86
2022/04/23 08:24:34;;;;;;;13.07;9.57;;;;;;;;;;4711924;30;20068;-84
2022/04/23 08:27:02;;;;;;;11.73;8.40;;;;;;;;;;4704148;30;20060;-85
2022/04/23 08:32:17;;;;;;;10.55;8.90;;;;;;;;;;4723058;30;20064;-82
2022/04/23 08:34:45;;;;;;;12.43;8.13;;;;;;;;;;4732627;30;20059;-83
2022/04/23 08:37:13;;;;;;;10.98;9.23;;;;;;;;;;4703385;30;20052;-84
2022/04/23 08:39:43;;;;;;;10.13;6.75;;;;;;;;;;4703823;30;20067;-84
2022/04/23 08:42:11;;;;;;;10.05;7.72;;;;;;;;;;4697563;30;20057;-84
2022/04/23 08:44:41;;;;;;;7.38;6.40;;;;;;;;;;4699016;30;20060;-82
2022/04/23 08:47:11;;;;;;;8.07;6.85;;;;;;;;;;4712321;30;20063;-91
2022/04/23 08:49:40;;;;;;;10.27;8.20;;;;;;;;;;4697588;30;20053;-89
2022/04/23 08:52:15;;;;;;;13.30;9.27;;;;;;;;;;4713394;30;20065;-88
2022/04/23 08:54:43;;;;;;;10.43;8.23;;;;;;;;;;4720572;30;20448;-85
2022/04/23 08:57:11;;;;;;;9.43;7.07;;;;;;;;;;4702255;30;20069;-86
2022/04/23 08:59:40;;;;;;;10.68;7.63;;;;;;;;;;4695573;30;20049;-87
2022/04/23 09:02:11;;;;;;;10.73;7.57;;;;;;;;;;4735901;30;20056;-83
2022/04/23 09:04:42;;;;;;;8.93;5.50;;;;;;;;;;4737782;30;20063;-84
2022/04/23 09:07:23;;;;;;;8.10;6.25;;;;;;;;;;4714572;30;20419;-86
2022/04/23 09:09:52;;;;;;;14.10;8.70;;;;;;;;;;4723530;30;20056;-85
2022/04/23 09:12:26;;;;;;;;;;;;;;;;;;4698258;30;20527;-84
2022/04/23 09:15:04;;;;;;;8.50;6.70;;;;;;;;;;4724189;30;20545;-85
2022/04/23 09:25:47;;;;;;;12.80;8.55;;;;;;;;;;4729344;30;20052;-86
2022/04/23 09:28:21;;;;;;;10.77;9.68;;;;;;;;;;4718771;30;20065;-85
2022/04/23 09:30:54;;;;;;;10.13;7.07;;;;;;;;;;4719053;30;20060;-86
2022/04/23 09:33:45;;;;;;;13.77;9.57;;;;;;;;;;4700047;30;20061;-87
2022/04/23 09:36:46;;;;;;;8.38;6.72;;;;;;;;;;4699126;30;20064;-90
2022/04/23 09:39:14;;;;;;;9.07;7.35;;;;;;;;;;4687942;30;20057;-86
2022/04/23 09:41:42;;;;;;;11.07;8.85;;;;;;;;;;4668702;30;20056;-85
2022/04/23 09:44:14;;;;;;;12.35;7.95;;;;;;;;;;4708326;30;20060;-85
2022/04/23 09:46:48;;;;;;;10.18;7.07;;;;;;;;;;4727121;30;20794;-82
2022/04/23 09:49:34;;;;;;;10.45;7.30;;;;;;;;;;4720041;30;20053;-82
2022/04/23 09:52:04;;;;;;;64.63;33.63;;;;;;;;;;4698731;30;20060;-78
2022/04/23 09:54:33;;;;;;;10.30;8.95;;;;;;;;;;4715212;30;20056;-81
2022/04/23 09:57:03;;;;;;;14.63;8.02;;;;;;;;;;4726098;30;20072;-80
2022/04/23 09:59:35;;;;;;;7.05;5.13;;;;;;;;;;4697231;30;20056;-79
2022/04/23 10:02:04;;;;;;;8.70;6.60;;;;;;;;;;4730810;30;20047;-78
2022/04/23 10:04:33;;;;;;;8.90;7.72;;;;;;;;;;4731385;30;20593;-82
2022/04/23 10:07:02;;;;;;;9.05;7.25;;;;;;;;;;4728212;30;20044;-80
2022/04/23 10:09:32;;;;;;;8.63;7.57;;;;;;;;;;4730776;30;20059;-79
2022/04/23 10:12:01;;;;;;;;;;;;;;;;;;4731803;30;20057;-80
2022/04/23 10:14:31;;;;;;;13.05;9.00;;;;;;;;;;4731117;30;19930;-80
2022/04/23 10:17:00;;;;;;;11.43;8.50;;;;;;;;;;4712629;30;20498;-80
2022/04/23 10:19:29;;;;;;;11.30;7.55;;;;;;;;;;4706828;30;20613;-84
2022/04/23 10:22:07;;;;;;;14.32;10.15;;;;;;;;;;4723243;30;20052;-80
2022/04/23 10:24:51;;;;;;;9.50;7.40;;;;;;;;;;4729206;30;20064;-82
2022/04/23 10:27:19;;;;;;;13.82;9.43;;;;;;;;;;4722973;30;20060;-80
2022/04/23 10:29:50;;;;;;;15.38;9.35;;;;;;;;;;4722739;30;20052;-82
2022/04/23 10:32:20;;;;;;;11.10;9.13;;;;;;;;;;4718943;30;20487;-83
2022/04/23 10:34:49;;;;;;;14.35;10.77;;;;;;;;;;4722194;30;20504;-81
2022/04/23 10:37:18;;;;;;;16.83;10.45;;;;;;;;;;4720126;30;20499;-82
2022/04/23 10:40:06;;;;;;;17.05;11.18;;;;;;;;;;4721999;30;20055;-83
2022/04/23 10:42:35;;;;;;;14.90;9.88;;;;;;;;;;4726837;30;20051;-83
2022/04/23 10:45:07;;;;;;;19.38;11.18;;;;;;;;;;4696558;30;20794;-81
2022/04/23 10:47:40;;;;;;;15.68;13.27;;;;;;;;;;4693707;30;20057;-82
2022/04/23 10:50:25;;;;;;;15.00;10.05;;;;;;;;;;4718976;30;20057;-82
2022/04/23 10:52:55;;;;;;;16.20;10.88;;;;;;;;;;4705484;30;20551;-83
2022/04/23 10:55:23;;;;;;;13.75;9.63;;;;;;;;;;4730244;30;20088;-81
2022/04/23 10:57:57;;;;;;;17.67;13.23;;;;;;;;;;4727915;30;20053;-81
2022/04/23 11:00:30;;;;;;;21.75;12.85;;;;;;;;;;4728530;30;20069;-84
2022/04/23 11:03:07;;;;;;;25.45;15.98;;;;;;;;;;4725932;30;20764;-84
2022/04/23 11:14:27;;;;;;;14.43;11.38;;;;;;;;;;4726396;30;20048;-82
2022/04/23 11:16:56;;;;;;;16.47;11.97;;;;;;;;;;4723911;30;20052;-81
2022/04/23 11:19:26;;;;;;;14.07;12.52;;;;;;;;;;4728975;30;20415;-79
2022/04/23 11:21:55;;;;;;;20.20;11.52;;;;;;;;;;4728830;30;20048;-84
2022/04/23 11:24:24;;;;;;;17.10;12.48;;;;;;;;;;4703395;30;20064;-81
2022/04/23 11:26:55;;;;;;;20.63;12.20;;;;;;;;;;4713616;30;20522;-83
2022/04/23 11:29:27;;;;;;;20.02;11.60;;;;;;;;;;4725797;30;20419;-82
2022/04/23 11:32:01;;;;;;;21.15;15.13;;;;;;;;;;4724383;30;20053;-82
2022/04/23 11:34:38;;;;;;;16.30;11.05;;;;;;;;;;4728783;30;20053;-83
2022/04/23 11:37:11;;;;;;;18.13;13.70;;;;;;;;;;4729528;30;20416;-81
2022/04/23 11:39:42;;;;;;;18.00;13.13;;;;;;;;;;4728883;30;20499;-79
2022/04/23 11:42:11;;;;;;;18.65;12.50;;;;;;;;;;4718007;30;20092;-79
2022/04/23 11:44:48;;;;;;;20.92;12.80;;;;;;;;;;4712328;30;20053;-84
2022/04/23 11:47:28;;;;;;;18.55;13.23;;;;;;;;;;4711723;30;20053;-81
2022/04/23 11:50:09;;;;;;;22.52;13.57;;;;;;;;;;4711756;30;20053;-80
2022/04/23 11:52:39;;;;;;;21.65;13.95;;;;;;;;;;4723046;30;20059;-79
2022/04/23 11:55:08;;;;;;;23.42;15.35;;;;;;;;;;4729146;30;20057;-82
2022/04/23 11:57:38;;;;;;;21.30;13.75;;;;;;;;;;4728833;30;20048;-80
2022/04/23 12:00:09;;;;;;;21.40;17.67;;;;;;;;;;4728891;30;20056;-81
2022/04/23 12:02:39;;;;;;;20.92;14.25;;;;;;;;;;4728970;30;20052;-83
2022/04/23 12:05:11;;;;;;;17.52;11.93;;;;;;;;;;4713863;30;20059;-80
2022/04/23 12:07:46;;;;;;;17.42;12.63;;;;;;;;;;4727904;30;20060;-80
2022/04/23 12:10:23;;;;;;;19.63;11.83;;;;;;;;;;4713453;30;20596;-81
2022/04/23 12:12:52;;;;;;;24.23;16.50;;;;;;;;;;4729516;30;20303;-80
2022/04/23 12:15:22;;;;;;;17.13;14.25;;;;;;;;;;4728960;30;20057;-81
2022/04/23 12:17:55;;;;;;;21.65;14.82;;;;;;;;;;4728757;30;20049;-79
2022/04/23 12:20:25;;;;;;;21.38;13.93;;;;;;;;;;4729058;30;20559;-83
2022/04/23 12:22:55;;;;;;;20.73;15.13;;;;;;;;;;4727148;30;20067;-80
2022/04/23 12:25:25;;;;;;;19.92;13.57;;;;;;;;;;4728861;30;20063;-80
2022/04/23 12:27:55;;;;;;;22.40;15.25;;;;;;;;;;4728984;30;20076;-77
2022/04/23 12:41:55;;;;;;;20.08;13.45;;;;;;;;;;4728227;30;20061;-80
2022/04/23 12:44:25;;;;;;;14.55;11.32;;;;;;;;;;4729084;30;20052;-81
2022/04/23 12:47:17;;;;;;;17.92;11.27;;;;;;;;;;4712205;30;20061;-83
2022/04/23 12:49:47;;;;;;;;;;;;;;;;;;4728292;30;20053;-81
2022/04/23 12:52:22;;;;;;;15.32;10.90;;;;;;;;;;4728304;30;20416;-85
2022/04/23 12:55:12;;;;;;;19.33;12.10;;;;;;;;;;4712950;30;20056;-84
2022/04/23 12:57:44;;;;;;;17.38;15.27;;;;;;;;;;4709628;30;20838;-83
2022/04/23 13:00:16;;;;;;;23.70;11.70;;;;;;;;;;4716533;30;20053;-83
2022/04/23 13:02:53;;;;;;;15.45;9.95;;;;;;;;;;4711270;30;20052;-82
2022/04/23 13:05:23;;;;;;;18.90;12.80;;;;;;;;;;4714419;30;20052;-84
2022/04/23 13:10:42;;;;;;;14.75;11.13;;;;;;;;;;4728058;30;20076;-84
2022/04/23 13:13:18;;;;;;;19.38;14.90;;;;;;;;;;4728130;30;20060;-82
2022/04/23 13:15:48;;;;;;;14.68;11.38;;;;;;;;;;4728752;30;20063;-83
2022/04/23 13:18:17;;;;;;;17.45;12.13;;;;;;;;;;4704047;30;20050;-83
2022/04/23 13:20:46;;;;;;;17.67;13.50;;;;;;;;;;4723409;30;20526;-82
2022/04/23 13:23:16;;;;;;;17.00;14.77;;;;;;;;;;4727952;30;20064;-83
2022/04/23 13:25:46;;;;;;;22.05;14.20;;;;;;;;;;4727168;30;20057;-83
2022/04/23 13:28:15;;;;;;;19.40;13.05;;;;;;;;;;4741829;30;20061;-84
2022/04/23 13:30:45;;;;;;;17.33;12.75;;;;;;;;;;4715802;30;20045;-84
2022/04/23 13:33:14;;;;;;;14.85;11.40;;;;;;;;;;4695667;30;20091;-82
2022/04/23 13:35:44;;;;;;;19.02;12.43;;;;;;;;;;4727875;30;20056;-83
2022/04/23 13:38:26;;;;;;;17.20;10.82;;;;;;;;;;4741084;30;20041;-83
2022/04/23 13:40:56;;;;;;;16.85;13.23;;;;;;;;;;4728797;30;20056;-86
2022/04/23 13:43:28;;;;;;;17.83;13.35;;;;;;;;;;4728044;30;20056;-85
2022/04/23 13:46:00;;;;;;;17.42;11.02;;;;;;;;;;4694821;30;20079;-83
2022/04/23 13:48:29;;;;;;;15.77;11.82;;;;;;;;;;4694923;30;20063;-81
2022/04/23 13:50:58;;;;;;;17.45;12.95;;;;;;;;;;4709582;30;20535;-80
2022/04/23 13:53:27;;;;;;;14.18;10.90;;;;;;;;;;4708803;30;20084;-81
2022/04/23 13:55:57;;;;;;;15.50;11.35;;;;;;;;;;4711588;30;20392;-82
2022/04/23 13:58:27;;;;;;;11.77;10.43;;;;;;;;;;4709214;30;20080;-83
2022/04/23 14:00:58;;;;;;;15.95;12.23;;;;;;;;;;4705860;30;20575;-84
2022/04/23 14:11:51;;;;;;;14.65;10.77;;;;;;;;;;4697414;30;20053;-85
2022/04/23 14:14:20;;;;;;;19.58;14.10;;;;;;;;;;4728488;30;20045;-81
2022/04/23 14:16:50;;;;;;;13.80;10.35;;;;;;;;;;4712959;30;20786;-81
2022/04/23 14:19:20;;;;;;;18.50;14.40;;;;;;;;;;4727543;30;20056;-81
2022/04/23 14:21:50;;;;;;;16.42;13.55;;;;;;;;;;4727558;30;20067;-87
2022/04/23 14:24:20;;;;;;;16.40;12.55;;;;;;;;;;4684107;30;20068;-82
2022/04/23 14:26:49;;;;;;;12.65;8.98;;;;;;;;;;4727932;30;20053;-82
2022/04/23 14:29:19;;;;;;;18.80;15.10;;;;;;;;;;4727904;30;20515;-81
2022/04/23 14:31:51;;;;;;;17.55;12.48;;;;;;;;;;4719756;30;20053;-82
2022/04/23 14:34:29;;;;;;;20.33;14.13;;;;;;;;;;4720970;30;20048;-84
2022/04/23 14:36:59;;;;;;;21.85;13.77;;;;;;;;;;4715569;30;20053;-81
2022/04/23 14:39:31;;;;;;;14.48;11.10;;;;;;;;;;4730886;30;20052;-82
2022/04/23 14:42:07;;;;;;;22.20;13.65;;;;;;;;;;4730477;30;20060;-82
2022/04/23 14:44:37;;;;;;;18.10;11.40;;;;;;;;;;4731485;30;20063;-88
2022/04/23 14:47:08;;;;;;;21.97;16.03;;;;;;;;;;4714975;30;20057;-86
2022/04/23 14:49:41;;;;;;;18.45;13.63;;;;;;;;;;4714598;30;20291;-82
2022/04/23 14:55:04;;;;;;;11.60;8.90;;;;;;;;;;4730613;30;20064;-86
2022/04/23 14:57:33;;;;;;;;;;;;;;;;;;4731013;30;20068;-82
2022/04/23 15:00:03;;;;;;;23.20;12.50;;;;;;;;;;4731015;30;20285;-82
2022/04/23 15:02:33;;;;;;;19.80;11.73;;;;;;;;;;4730446;30;20049;-83
2022/04/23 15:05:07;;;;;;;15.73;10.30;;;;;;;;;;4731202;30;20061;-81
2022/04/23 15:07:39;;;;;;;13.82;10.95;;;;;;;;;;4729415;30;20064;-83
2022/04/23 15:10:11;;;;;;;15.52;11.45;;;;;;;;;;4730245;30;20056;-83
2022/04/23 15:12:41;;;;;;;16.03;11.23;;;;;;;;;;4715105;30;20056;-82
2022/04/23 15:15:12;;;;;;;17.00;12.75;;;;;;;;;;4730106;30;20060;-81
2022/04/23 15:17:43;;;;;;;18.98;13.98;;;;;;;;;;4713680;30;20065;-81
2022/04/23 15:20:31;;;;;;;25.25;12.52;;;;;;;;;;4730586;30;20049;-86
2022/04/23 15:23:21;;;;;;;14.48;12.30;;;;;;;;;;4712972;30;20066;-86
2022/04/23 15:25:52;;;;;;;16.38;11.25;;;;;;;;;;4714266;30;20060;-87
2022/04/23 15:28:23;;;;;;;16.38;11.70;;;;;;;;;;4730164;30;20078;-84
2022/04/23 15:31:09;;;;;;;16.77;13.18;;;;;;;;;;4730183;30;20064;-88
2022/04/23 15:33:47;;;;;;;17.48;12.13;;;;;;;;;;4710249;30;20428;-85
2022/04/23 15:36:19;;;;;;;15.55;13.13;;;;;;;;;;4712178;30;20142;-85